createdAt,value
2019-03-28T00:00:34.398Z,80.54
2019-03-28T00:01:34.397Z,80.85
2019-03-28T00:02:34.387Z,81.37
2019-03-28T00:03:34.373Z,81.05
2019-03-28T00:04:34.381Z,80.74
2019-03-28T00:05:34.358Z,80.64
2019-03-28T00:06:34.354Z,80.95
2019-03-28T00:07:34.364Z,80.74
2019-03-28T00:08:34.353Z,80.54
2019-03-28T00:09:34.363Z,80.54
2019-03-28T00:10:34.869Z,81.16
2019-03-28T00:11:34.329Z,80.74
2019-03-28T00:12:34.321Z,80.71
2019-03-28T00:13:34.320Z,81.16
2019-03-28T00:14:34.323Z,80.95
2019-03-28T00:15:34.304Z,80.71
2019-03-28T00:16:34.299Z,81.68
2019-03-28T00:17:34.300Z,81.68
2019-03-28T00:18:34.282Z,82.19
2019-03-28T00:19:34.287Z,81.99
2019-03-28T00:20:34.265Z,82.40
2019-03-28T00:21:34.263Z,82.29
2019-03-28T00:22:34.251Z,81.99
2019-03-28T00:23:34.239Z,81.47
2019-03-28T00:24:34.244Z,81.57
2019-03-28T00:25:34.232Z,81.47
2019-03-28T00:26:34.223Z,81.78
2019-03-28T00:27:34.213Z,81.47
2019-03-28T00:28:34.207Z,81.23
2019-03-28T00:29:34.203Z,80.60
2019-03-28T00:30:34.193Z,80.95
2019-03-28T00:31:34.191Z,80.91
2019-03-28T00:32:34.179Z,80.71
2019-03-28T00:33:34.167Z,80.08
2019-03-28T00:34:34.190Z,79.77
2019-03-28T00:35:34.155Z,79.47
2019-03-28T00:36:34.159Z,79.26
2019-03-28T00:37:34.189Z,79.12
2019-03-28T00:38:34.135Z,79.16
2019-03-28T00:39:34.147Z,79.22
2019-03-28T00:40:34.127Z,79.26
2019-03-28T00:41:34.106Z,78.91
2019-03-28T00:42:34.101Z,79.63
2019-03-28T00:43:35.316Z,79.88
2019-03-28T00:44:34.086Z,79.88
2019-03-28T00:45:34.087Z,79.88
2019-03-28T00:46:34.070Z,79.98
2019-03-28T00:47:34.068Z,79.77
2019-03-28T00:48:34.062Z,79.77
2019-03-28T00:49:34.055Z,79.98
2019-03-28T00:50:34.488Z,79.77
2019-03-28T00:51:34.063Z,80.08
2019-03-28T00:52:34.057Z,79.53
2019-03-28T00:53:34.049Z,79.43
2019-03-28T00:54:34.054Z,79.02
2019-03-28T00:55:34.048Z,79.53
2019-03-28T00:56:46.405Z,79.53
2019-03-28T00:57:36.021Z,79.98
2019-03-28T00:58:34.260Z,80.08
2019-03-28T00:59:34.016Z,80.26
2019-03-28T01:00:34.009Z,80.15
2019-03-28T01:01:33.989Z,79.84
2019-03-28T01:02:33.982Z,80.26
2019-03-28T01:03:33.970Z,80.05
2019-03-28T01:04:33.994Z,79.84
2019-03-28T01:05:33.998Z,79.77
2019-03-28T01:06:33.981Z,79.98
2019-03-28T01:07:33.970Z,80.29
2019-03-28T01:08:33.962Z,79.77
2019-03-28T01:09:33.964Z,79.12
2019-03-28T01:10:33.958Z,79.12
2019-03-28T01:11:33.951Z,79.53
2019-03-28T01:12:33.937Z,79.53
2019-03-28T01:13:33.930Z,79.74
2019-03-28T01:14:33.921Z,79.22
2019-03-28T01:15:33.925Z,79.22
2019-03-28T01:16:33.913Z,78.39
2019-03-28T01:17:33.900Z,77.26
2019-03-28T01:18:33.891Z,77.36
2019-03-28T01:19:33.880Z,76.64
2019-03-28T01:20:33.891Z,76.74
2019-03-28T01:21:33.875Z,76.43
2019-03-28T01:22:33.861Z,76.26
2019-03-28T01:23:33.854Z,76.53
2019-03-28T01:24:33.846Z,76.53
2019-03-28T01:25:33.850Z,76.22
2019-03-28T01:26:33.834Z,76.78
2019-03-28T01:27:33.822Z,76.46
2019-03-28T01:28:33.816Z,76.64
2019-03-28T01:29:33.808Z,76.53
2019-03-28T01:30:33.808Z,76.22
2019-03-28T01:31:33.789Z,76.53
2019-03-28T01:32:33.786Z,77.47
2019-03-28T01:33:33.777Z,77.47
2019-03-28T01:34:33.768Z,75.95
2019-03-28T01:35:33.777Z,76.22
2019-03-28T01:36:33.754Z,76.64
2019-03-28T01:37:33.750Z,77.50
2019-03-28T01:38:33.740Z,77.19
2019-03-28T01:39:33.736Z,77.60
2019-03-28T01:40:33.742Z,77.81
2019-03-28T01:41:33.724Z,77.91
2019-03-28T01:42:33.715Z,79.05
2019-03-28T01:43:33.723Z,79.60
2019-03-28T01:44:33.711Z,80.95
2019-03-28T01:45:33.712Z,81.88
2019-03-28T01:46:33.684Z,82.29
2019-03-28T01:47:33.678Z,82.60
2019-03-28T01:48:33.670Z,82.81
2019-03-28T01:49:33.681Z,82.60
2019-03-28T01:50:33.688Z,81.99
2019-03-28T01:51:33.683Z,81.47
2019-03-28T01:52:33.666Z,81.64
2019-03-28T01:53:33.644Z,81.26
2019-03-28T01:54:34.651Z,81.99
2019-03-28T01:55:33.655Z,82.09
2019-03-28T01:56:33.641Z,82.09
2019-03-28T01:57:33.629Z,81.68
2019-03-28T01:58:33.621Z,81.95
2019-03-28T01:59:33.619Z,81.33
2019-03-28T02:00:33.630Z,81.54
2019-03-28T02:01:33.607Z,81.43
2019-03-28T02:02:33.589Z,81.84
2019-03-28T02:03:33.583Z,81.43
2019-03-28T02:04:33.579Z,81.37
2019-03-28T02:05:33.576Z,80.91
2019-03-28T02:06:34.225Z,80.81
2019-03-28T02:07:33.561Z,80.71
2019-03-28T02:08:33.545Z,80.50
2019-03-28T02:09:33.544Z,80.40
2019-03-28T02:10:33.540Z,80.40
2019-03-28T02:11:33.522Z,80.19
2019-03-28T02:12:33.609Z,79.98
2019-03-28T02:13:33.503Z,80.67
2019-03-28T02:14:33.506Z,80.50
2019-03-28T02:15:33.507Z,79.98
2019-03-28T02:16:33.480Z,80.19
2019-03-28T02:17:33.514Z,80.19
2019-03-28T02:18:33.500Z,80.19
2019-03-28T02:19:33.496Z,80.50
2019-03-28T02:20:33.492Z,80.29
2019-03-28T02:21:33.482Z,80.29
2019-03-28T02:22:33.470Z,79.88
2019-03-28T02:23:33.479Z,80.19
2019-03-28T02:24:33.469Z,79.57
2019-03-28T02:25:33.458Z,79.36
2019-03-28T02:26:34.211Z,79.05
2019-03-28T02:27:33.447Z,78.43
2019-03-28T02:28:33.436Z,78.22
2019-03-28T02:29:33.428Z,78.95
2019-03-28T02:30:33.439Z,78.43
2019-03-28T02:31:33.431Z,78.43
2019-03-28T02:32:33.991Z,79.09
2019-03-28T02:33:34.399Z,78.99
2019-03-28T02:34:33.400Z,79.30
2019-03-28T02:35:33.402Z,78.99
2019-03-28T02:36:33.386Z,79.30
2019-03-28T02:37:33.371Z,78.88
2019-03-28T02:38:33.364Z,79.30
2019-03-28T02:39:33.358Z,79.40
2019-03-28T02:40:33.472Z,79.50
2019-03-28T02:41:34.979Z,79.71
2019-03-28T02:42:33.345Z,79.09
2019-03-28T02:43:33.326Z,79.40
2019-03-28T02:44:33.326Z,79.71
2019-03-28T02:45:33.329Z,79.19
2019-03-28T02:46:33.312Z,79.71
2019-03-28T02:47:33.304Z,79.30
2019-03-28T02:48:33.299Z,79.71
2019-03-28T02:49:33.288Z,79.81
2019-03-28T02:50:33.288Z,79.50
2019-03-28T02:51:33.272Z,79.40
2019-03-28T02:52:33.268Z,79.40
2019-03-28T02:53:33.278Z,79.81
2019-03-28T02:54:33.275Z,80.54
2019-03-28T02:55:33.282Z,80.12
2019-03-28T02:56:33.259Z,80.02
2019-03-28T02:57:40.728Z,80.43
2019-03-28T02:58:35.245Z,80.36
2019-03-28T02:59:33.229Z,80.22
2019-03-28T03:00:33.229Z,80.12
2019-03-28T03:01:33.220Z,80.02
2019-03-28T03:02:33.229Z,80.74
2019-03-28T03:03:33.208Z,80.85
2019-03-28T03:04:33.199Z,81.37
2019-03-28T03:05:33.200Z,81.57
2019-03-28T03:06:33.216Z,81.88
2019-03-28T03:07:33.209Z,81.43
2019-03-28T03:08:33.683Z,81.43
2019-03-28T03:09:33.180Z,80.81
2019-03-28T03:10:33.181Z,81.02
2019-03-28T03:11:33.167Z,80.60
2019-03-28T03:12:33.160Z,79.98
2019-03-28T03:13:33.187Z,79.98
2019-03-28T03:14:33.143Z,79.36
2019-03-28T03:15:33.136Z,79.77
2019-03-28T03:16:33.136Z,79.88
2019-03-28T03:17:33.129Z,79.98
2019-03-28T03:18:33.844Z,79.77
2019-03-28T03:19:33.107Z,79.88
2019-03-28T03:20:33.098Z,79.98
2019-03-28T03:21:33.094Z,79.88
2019-03-28T03:22:33.085Z,79.88
2019-03-28T03:23:33.092Z,80.60
2019-03-28T03:24:33.070Z,80.85
2019-03-28T03:25:33.068Z,80.40
2019-03-28T03:26:33.042Z,80.33
2019-03-28T03:27:34.052Z,80.33
2019-03-28T03:28:33.067Z,80.95
2019-03-28T03:29:33.032Z,80.64
2019-03-28T03:30:33.028Z,81.37
2019-03-28T03:31:33.018Z,80.12
2019-03-28T03:32:33.011Z,80.33
2019-03-28T03:33:33.016Z,80.19
2019-03-28T03:34:33.642Z,79.47
2019-03-28T03:35:33.990Z,79.47
2019-03-28T03:36:32.986Z,79.47
2019-03-28T03:37:32.974Z,79.16
2019-03-28T03:38:32.990Z,79.12
2019-03-28T03:39:32.965Z,78.91
2019-03-28T03:40:32.978Z,78.02
2019-03-28T03:41:32.978Z,77.39
2019-03-28T03:42:32.983Z,77.56
2019-03-28T03:43:32.980Z,77.67
2019-03-28T03:44:32.950Z,78.19
2019-03-28T03:45:32.950Z,77.67
2019-03-28T03:46:32.932Z,78.29
2019-03-28T03:47:32.935Z,77.67
2019-03-28T03:48:33.190Z,77.67
2019-03-28T03:49:32.913Z,77.77
2019-03-28T03:50:32.906Z,78.50
2019-03-28T03:51:32.898Z,78.53
2019-03-28T03:52:32.890Z,78.60
2019-03-28T03:53:32.906Z,78.64
2019-03-28T03:54:32.903Z,78.39
2019-03-28T03:55:32.885Z,78.39
2019-03-28T03:56:32.876Z,78.74
2019-03-28T03:57:32.867Z,79.47
2019-03-28T03:58:32.852Z,79.60
2019-03-28T03:59:32.865Z,80.22
2019-03-28T04:00:32.918Z,80.33
2019-03-28T04:01:32.845Z,80.74
2019-03-28T04:02:32.836Z,81.05
2019-03-28T04:03:32.830Z,82.03
2019-03-28T04:04:32.836Z,81.92
2019-03-28T04:05:32.821Z,81.71
2019-03-28T04:06:32.809Z,80.95
2019-03-28T04:07:32.814Z,80.74
2019-03-28T04:08:32.796Z,81.16
2019-03-28T04:09:32.798Z,81.16
2019-03-28T04:10:32.781Z,80.88
2019-03-28T04:11:32.772Z,81.37
2019-03-28T04:12:32.776Z,81.57
2019-03-28T04:13:32.745Z,81.57
2019-03-28T04:14:33.770Z,81.78
2019-03-28T04:15:32.749Z,81.57
2019-03-28T04:16:32.736Z,81.68
2019-03-28T04:17:32.734Z,81.37
2019-03-28T04:18:32.735Z,81.88
2019-03-28T04:19:32.731Z,81.88
2019-03-28T04:20:32.709Z,81.68
2019-03-28T04:21:32.704Z,81.78
2019-03-28T04:22:32.703Z,82.40
2019-03-28T04:23:32.689Z,82.71
2019-03-28T04:24:32.697Z,82.75
2019-03-28T04:25:32.673Z,82.86
2019-03-28T04:26:32.670Z,83.06
2019-03-28T04:27:32.670Z,83.58
2019-03-28T04:28:32.837Z,83.16
2019-03-28T04:29:33.663Z,83.16
2019-03-28T04:30:32.639Z,83.06
2019-03-28T04:31:32.645Z,83.12
2019-03-28T04:32:32.642Z,82.40
2019-03-28T04:33:32.629Z,82.09
2019-03-28T04:34:32.652Z,82.50
2019-03-28T04:35:32.628Z,82.19
2019-03-28T04:36:32.619Z,82.09
2019-03-28T04:37:32.698Z,82.29
2019-03-28T04:38:33.605Z,82.71
2019-03-28T04:39:32.609Z,82.57
2019-03-28T04:40:32.609Z,82.60
2019-03-28T04:41:39.380Z,82.71
2019-03-28T04:42:32.614Z,82.71
2019-03-28T04:43:32.595Z,82.60
2019-03-28T04:44:32.589Z,82.81
2019-03-28T04:45:32.601Z,82.92
2019-03-28T04:46:32.576Z,82.81
2019-03-28T04:47:32.561Z,83.02
2019-03-28T04:48:33.569Z,83.02
2019-03-28T04:49:32.561Z,82.81
2019-03-28T04:50:32.556Z,83.33
2019-03-28T04:51:32.540Z,83.23
2019-03-28T04:52:32.539Z,83.16
2019-03-28T04:53:32.528Z,83.44
2019-03-28T04:54:32.528Z,83.02
2019-03-28T04:55:32.519Z,83.12
2019-03-28T04:56:32.504Z,83.12
2019-03-28T04:57:32.510Z,82.92
2019-03-28T04:58:43.882Z,83.23
2019-03-28T04:59:34.488Z,83.33
2019-03-28T05:00:33.320Z,83.23
2019-03-28T05:01:32.469Z,82.26
2019-03-28T05:02:32.465Z,83.23
2019-03-28T05:03:32.456Z,83.19
2019-03-28T05:04:32.447Z,83.23
2019-03-28T05:05:32.608Z,83.19
2019-03-28T05:06:32.436Z,83.23
2019-03-28T05:07:32.429Z,83.85
2019-03-28T05:08:32.421Z,83.75
2019-03-28T05:09:32.412Z,83.50
2019-03-28T05:10:33.203Z,83.33
2019-03-28T05:11:33.541Z,83.29
2019-03-28T05:12:32.387Z,83.19
2019-03-28T05:13:32.378Z,83.19
2019-03-28T05:14:32.370Z,83.81
2019-03-28T05:15:32.393Z,83.40
2019-03-28T05:16:32.385Z,82.98
2019-03-28T05:17:32.367Z,83.09
2019-03-28T05:18:32.416Z,83.09
2019-03-28T05:19:32.373Z,82.78
2019-03-28T05:20:32.381Z,82.88
2019-03-28T05:21:32.385Z,82.98
2019-03-28T05:22:32.383Z,83.09
2019-03-28T05:23:32.367Z,82.67
2019-03-28T05:24:32.506Z,82.46
2019-03-28T05:25:32.342Z,82.26
2019-03-28T05:26:32.345Z,82.57
2019-03-28T05:27:32.885Z,81.95
2019-03-28T05:28:32.326Z,82.46
2019-03-28T05:29:32.312Z,82.78
2019-03-28T05:30:32.309Z,83.29
2019-03-28T05:31:32.317Z,82.46
2019-03-28T05:32:32.289Z,82.15
2019-03-28T05:33:32.294Z,82.78
2019-03-28T05:34:32.276Z,83.12
2019-03-28T05:35:32.295Z,82.60
2019-03-28T05:36:32.298Z,83.23
2019-03-28T05:37:32.277Z,83.29
2019-03-28T05:38:32.274Z,82.81
2019-03-28T05:39:32.283Z,83.19
2019-03-28T05:40:32.279Z,83.81
2019-03-28T05:41:32.336Z,83.91
2019-03-28T05:42:32.267Z,83.71
2019-03-28T05:43:32.253Z,82.88
2019-03-28T05:44:32.254Z,82.98
2019-03-28T05:45:32.239Z,83.19
2019-03-28T05:46:32.242Z,85.47
2019-03-28T05:47:32.230Z,84.22
2019-03-28T05:48:32.228Z,84.53
2019-03-28T05:49:32.209Z,84.12
2019-03-28T05:50:32.208Z,84.22
2019-03-28T05:51:32.207Z,83.50
2019-03-28T05:52:32.192Z,83.71
2019-03-28T05:53:32.176Z,83.81
2019-03-28T05:54:32.174Z,83.15
2019-03-28T05:55:32.168Z,82.84
2019-03-28T05:56:32.165Z,83.05
2019-03-28T05:57:32.152Z,82.95
2019-03-28T05:58:32.143Z,83.05
2019-03-28T05:59:32.139Z,82.64
2019-03-28T06:00:32.126Z,82.12
2019-03-28T06:01:32.426Z,82.32
2019-03-28T06:02:32.108Z,82.43
2019-03-28T06:03:32.117Z,83.42
2019-03-28T06:04:32.099Z,82.80
2019-03-28T06:05:32.093Z,83.98
2019-03-28T06:06:32.096Z,83.56
2019-03-28T06:07:32.082Z,83.46
2019-03-28T06:08:32.069Z,83.87
2019-03-28T06:09:32.067Z,84.08
2019-03-28T06:10:32.050Z,83.87
2019-03-28T06:11:32.062Z,83.77
2019-03-28T06:12:32.044Z,83.87
2019-03-28T06:13:32.037Z,84.39
2019-03-28T06:14:32.031Z,84.08
2019-03-28T06:15:32.020Z,83.53
2019-03-28T06:16:32.032Z,84.25
2019-03-28T06:17:32.004Z,83.56
2019-03-28T06:18:31.998Z,83.98
2019-03-28T06:19:31.998Z,84.15
2019-03-28T06:20:31.986Z,83.63
2019-03-28T06:21:31.987Z,83.94
2019-03-28T06:22:31.972Z,83.63
2019-03-28T06:23:31.963Z,83.73
2019-03-28T06:24:31.950Z,83.18
2019-03-28T06:25:31.955Z,82.97
2019-03-28T06:26:31.969Z,82.76
2019-03-28T06:27:31.930Z,82.45
2019-03-28T06:28:31.925Z,82.62
2019-03-28T06:29:31.915Z,83.25
2019-03-28T06:30:31.914Z,82.73
2019-03-28T06:31:32.213Z,81.73
2019-03-28T06:32:42.361Z,81.63
2019-03-28T06:33:34.517Z,82.35
2019-03-28T06:34:31.882Z,82.87
2019-03-28T06:35:31.876Z,83.07
2019-03-28T06:36:31.868Z,82.66
2019-03-28T06:37:32.409Z,82.56
2019-03-28T06:38:31.880Z,82.97
2019-03-28T06:39:31.875Z,82.97
2019-03-28T06:40:31.866Z,82.04
2019-03-28T06:41:31.855Z,81.49
2019-03-28T06:42:31.882Z,81.63
2019-03-28T06:43:31.862Z,82.87
2019-03-28T06:44:31.855Z,81.42
2019-03-28T06:45:31.843Z,81.49
2019-03-28T06:46:31.863Z,81.59
2019-03-28T06:47:31.864Z,80.87
2019-03-28T06:48:31.844Z,81.38
2019-03-28T06:49:31.837Z,81.18
2019-03-28T06:50:31.837Z,81.38
2019-03-28T06:51:31.824Z,81.70
2019-03-28T06:52:31.826Z,83.14
2019-03-28T06:53:31.809Z,81.38
2019-03-28T06:54:31.803Z,80.56
2019-03-28T06:55:31.794Z,80.35
2019-03-28T06:56:31.794Z,80.73
2019-03-28T06:57:31.790Z,80.21
2019-03-28T06:58:31.837Z,80.00
2019-03-28T06:59:37.255Z,78.83
2019-03-28T07:00:33.758Z,78.11
2019-03-28T07:01:31.743Z,79.00
2019-03-28T07:02:31.749Z,77.97
2019-03-28T07:03:31.790Z,77.15
2019-03-28T07:04:31.726Z,78.59
2019-03-28T07:05:31.720Z,79.11
2019-03-28T07:06:31.714Z,75.67
2019-03-28T07:07:32.324Z,74.95
2019-03-28T07:08:31.704Z,75.91
2019-03-28T07:09:31.692Z,76.87
2019-03-28T07:10:31.683Z,76.15
2019-03-28T07:11:31.673Z,74.57
2019-03-28T07:12:31.723Z,74.33
2019-03-28T07:13:31.658Z,73.57
2019-03-28T07:14:31.653Z,73.78
2019-03-28T07:15:31.648Z,72.17
2019-03-28T07:16:31.638Z,70.87
2019-03-28T07:17:31.634Z,70.70
2019-03-28T07:18:31.639Z,71.00
2019-03-28T07:19:31.629Z,71.72
2019-03-28T07:20:31.624Z,70.18
2019-03-28T07:21:31.641Z,68.55
2019-03-28T07:22:31.607Z,66.20
2019-03-28T07:23:31.612Z,63.54
2019-03-28T07:24:31.612Z,64.70
2019-03-28T07:25:31.612Z,66.72
2019-03-28T07:26:31.612Z,66.75
2019-03-28T07:27:31.605Z,66.37
2019-03-28T07:28:31.617Z,67.63
2019-03-28T07:29:31.587Z,68.72
2019-03-28T07:30:31.611Z,68.44
2019-03-28T07:31:31.579Z,70.12
2019-03-28T07:32:31.584Z,71.17
2019-03-28T07:33:31.582Z,72.24
2019-03-28T07:34:31.571Z,72.58
2019-03-28T07:35:31.564Z,73.33
2019-03-28T07:36:31.548Z,73.64
2019-03-28T07:37:31.541Z,73.74
2019-03-28T07:38:31.550Z,74.02
2019-03-28T07:39:31.537Z,73.71
2019-03-28T07:40:33.479Z,72.75
2019-03-28T07:41:32.514Z,72.20
2019-03-28T07:42:31.513Z,72.10
2019-03-28T07:43:31.516Z,71.93
2019-03-28T07:44:31.493Z,72.47
2019-03-28T07:45:34.308Z,72.99
2019-03-28T07:46:31.479Z,73.57
2019-03-28T07:47:31.473Z,72.31
2019-03-28T07:48:31.482Z,72.82
2019-03-28T07:49:31.455Z,71.35
2019-03-28T07:50:33.452Z,71.28
2019-03-28T07:51:32.441Z,73.27
2019-03-28T07:52:31.460Z,72.85
2019-03-28T07:53:31.485Z,72.65
2019-03-28T07:54:31.458Z,73.16
2019-03-28T07:55:31.624Z,73.13
2019-03-28T07:56:31.435Z,72.17
2019-03-28T07:57:31.428Z,70.90
2019-03-28T07:58:31.422Z,71.69
2019-03-28T07:59:31.431Z,69.30
2019-03-28T08:00:31.417Z,69.57
2019-03-28T08:01:31.403Z,68.14
2019-03-28T08:02:31.392Z,69.34
2019-03-28T08:03:31.400Z,68.41
2019-03-28T08:04:31.401Z,68.99
2019-03-28T08:05:31.384Z,69.64
2019-03-28T08:06:31.387Z,71.01
2019-03-28T08:07:43.968Z,71.21
2019-03-28T08:08:38.634Z,70.36
2019-03-28T08:09:36.834Z,70.56
2019-03-28T08:10:32.353Z,70.80
2019-03-28T08:11:31.461Z,70.97
2019-03-28T08:12:31.343Z,70.90
2019-03-28T08:13:31.335Z,71.11
2019-03-28T08:14:31.339Z,71.72
2019-03-28T08:15:31.317Z,70.97
2019-03-28T08:16:31.313Z,70.56
2019-03-28T08:17:31.303Z,71.80
2019-03-28T08:18:31.300Z,70.43
2019-03-28T08:19:31.304Z,70.56
2019-03-28T08:20:31.282Z,72.99
2019-03-28T08:21:31.289Z,70.67
2019-03-28T08:22:31.277Z,71.01
2019-03-28T08:23:31.273Z,70.90
2019-03-28T08:24:31.358Z,71.31
2019-03-28T08:25:31.257Z,70.97
2019-03-28T08:26:31.254Z,69.89
2019-03-28T08:27:31.249Z,68.55
2019-03-28T08:28:31.239Z,68.86
2019-03-28T08:29:31.237Z,68.79
2019-03-28T08:30:31.229Z,69.61
2019-03-28T08:31:31.207Z,70.73
2019-03-28T08:32:31.216Z,70.09
2019-03-28T08:33:31.204Z,70.64
2019-03-28T08:34:31.497Z,69.84
2019-03-28T08:35:32.194Z,70.67
2019-03-28T08:36:31.184Z,74.84
2019-03-28T08:37:31.184Z,70.40
2019-03-28T08:38:31.174Z,69.89
2019-03-28T08:39:31.157Z,68.55
2019-03-28T08:40:31.148Z,69.61
2019-03-28T08:41:32.157Z,71.01
2019-03-28T08:42:31.145Z,68.86
2019-03-28T08:43:31.126Z,67.60
2019-03-28T08:44:31.120Z,68.52
2019-03-28T08:45:31.122Z,67.26
2019-03-28T08:46:31.103Z,68.45
2019-03-28T08:47:31.099Z,69.71
2019-03-28T08:48:31.094Z,68.38
2019-03-28T08:49:31.116Z,67.54
2019-03-28T08:50:31.109Z,67.54
2019-03-28T08:51:31.091Z,66.51
2019-03-28T08:52:31.084Z,67.91
2019-03-28T08:53:31.074Z,66.45
2019-03-28T08:54:31.066Z,65.37
2019-03-28T08:55:31.093Z,65.67
2019-03-28T08:56:31.059Z,64.58
2019-03-28T08:57:31.052Z,63.66
2019-03-28T08:58:31.038Z,66.11
2019-03-28T08:59:31.046Z,64.61
2019-03-28T09:00:35.152Z,66.93
2019-03-28T09:01:33.009Z,64.75
2019-03-28T09:02:32.040Z,62.55
2019-03-28T09:03:31.025Z,62.73
2019-03-28T09:04:31.012Z,61.83
2019-03-28T09:05:31.024Z,61.83
2019-03-28T09:06:31.003Z,62.55
2019-03-28T09:07:31.057Z,61.91
2019-03-28T09:08:30.987Z,63.51
2019-03-28T09:09:30.993Z,62.87
2019-03-28T09:10:30.994Z,61.04
2019-03-28T09:11:30.978Z,60.35
2019-03-28T09:12:31.017Z,60.71
2019-03-28T09:13:31.971Z,61.19
2019-03-28T09:14:32.113Z,60.73
2019-03-28T09:15:43.030Z,62.65
2019-03-28T09:16:33.131Z,62.30
2019-03-28T09:17:30.927Z,62.74
2019-03-28T09:18:30.928Z,64.61
2019-03-28T09:19:30.917Z,64.81
2019-03-28T09:20:30.921Z,61.34
2019-03-28T09:21:30.907Z,61.98
2019-03-28T09:22:30.896Z,62.93
2019-03-28T09:23:30.884Z,63.95
2019-03-28T09:24:30.884Z,63.72
2019-03-28T09:25:30.884Z,63.35
2019-03-28T09:26:30.877Z,62.45
2019-03-28T09:27:30.854Z,60.61
2019-03-28T09:29:02.823Z,60.26
2019-03-28T09:29:30.848Z,60.49
2019-03-28T09:30:30.844Z,61.87
2019-03-28T09:31:30.831Z,58.75
2019-03-28T09:32:30.825Z,58.92
2019-03-28T09:33:30.812Z,59.89
2019-03-28T09:34:30.810Z,58.80
2019-03-28T09:35:30.851Z,58.59
2019-03-28T09:36:30.788Z,58.21
2019-03-28T09:37:30.947Z,59.20
2019-03-28T09:38:30.803Z,56.32
2019-03-28T09:39:30.808Z,55.66
2019-03-28T09:40:30.798Z,54.66
2019-03-28T09:41:30.772Z,58.69
2019-03-28T09:42:30.765Z,56.88
2019-03-28T09:43:30.773Z,56.70
2019-03-28T09:44:30.932Z,56.77
2019-03-28T09:45:30.753Z,56.09
2019-03-28T09:46:30.736Z,58.44
2019-03-28T09:47:30.731Z,56.77
2019-03-28T09:48:30.746Z,57.54
2019-03-28T09:49:30.734Z,58.85
2019-03-28T09:50:30.744Z,58.47
2019-03-28T09:51:30.719Z,61.19
2019-03-28T09:52:30.719Z,58.78
2019-03-28T09:53:30.703Z,58.64
2019-03-28T09:54:30.699Z,58.98
2019-03-28T09:55:30.721Z,60.96
2019-03-28T09:56:30.700Z,57.95
2019-03-28T09:57:30.688Z,58.74
2019-03-28T09:58:30.687Z,55.46
2019-03-28T09:59:30.678Z,55.43
2019-03-28T10:00:32.765Z,54.59
2019-03-28T10:01:31.657Z,54.74
2019-03-28T10:02:30.653Z,52.91
2019-03-28T10:03:30.654Z,56.77
2019-03-28T10:04:30.632Z,54.49
2019-03-28T10:05:30.646Z,56.16
2019-03-28T10:06:30.618Z,58.33
2019-03-28T10:07:30.613Z,57.08
2019-03-28T10:08:30.605Z,55.66
2019-03-28T10:09:30.595Z,54.59
2019-03-28T10:10:30.598Z,57.03
2019-03-28T10:11:30.586Z,56.98
2019-03-28T10:12:30.573Z,55.55
2019-03-28T10:13:30.564Z,54.72
2019-03-28T10:14:30.561Z,55.22
2019-03-28T10:15:30.566Z,55.02
2019-03-28T10:16:30.547Z,56.65
2019-03-28T10:17:30.537Z,55.43
2019-03-28T10:18:30.527Z,55.38
2019-03-28T10:19:30.542Z,53.93
2019-03-28T10:20:30.527Z,52.18
2019-03-28T10:21:30.509Z,52.51
2019-03-28T10:22:30.496Z,54.94
2019-03-28T10:23:30.496Z,54.28
2019-03-28T10:24:30.476Z,55.15
2019-03-28T10:25:30.488Z,57.06
2019-03-28T10:26:30.470Z,57.37
2019-03-28T10:27:30.458Z,58.46
2019-03-28T10:28:30.452Z,56.42
2019-03-28T10:29:30.449Z,56.88
2019-03-28T10:30:30.466Z,56.04
2019-03-28T10:31:30.428Z,56.95
2019-03-28T10:32:30.422Z,58.23
2019-03-28T10:33:30.412Z,58.15
2019-03-28T10:34:30.403Z,58.53
2019-03-28T10:35:30.407Z,57.14
2019-03-28T10:36:30.392Z,56.93
2019-03-28T10:37:30.409Z,57.01
2019-03-28T10:38:30.414Z,56.90
2019-03-28T10:39:30.410Z,57.01
2019-03-28T10:40:30.443Z,55.96
2019-03-28T10:41:30.424Z,54.82
2019-03-28T10:42:30.409Z,56.45
2019-03-28T10:43:30.399Z,55.00
2019-03-28T10:44:30.396Z,54.61
2019-03-28T10:45:33.434Z,56.77
2019-03-28T10:46:30.390Z,56.85
2019-03-28T10:47:30.372Z,54.44
2019-03-28T10:48:30.369Z,56.81
2019-03-28T10:49:30.356Z,58.23
2019-03-28T10:50:40.716Z,58.71
2019-03-28T10:51:32.368Z,55.96
2019-03-28T10:52:30.353Z,56.16
2019-03-28T10:53:30.400Z,58.05
2019-03-28T10:54:30.336Z,57.47
2019-03-28T10:55:30.328Z,58.69
2019-03-28T10:56:30.331Z,57.47
2019-03-28T10:57:32.014Z,57.17
2019-03-28T10:58:30.311Z,57.98
2019-03-28T10:59:30.309Z,56.93
2019-03-28T11:00:30.305Z,55.79
2019-03-28T11:01:47.580Z,55.38
2019-03-28T11:02:32.294Z,55.58
2019-03-28T11:03:30.404Z,55.07
2019-03-28T11:04:30.283Z,55.79
2019-03-28T11:05:31.280Z,55.48
2019-03-28T11:06:30.269Z,56.45
2019-03-28T11:07:30.259Z,55.84
2019-03-28T11:08:30.264Z,56.55
2019-03-28T11:09:30.245Z,55.63
2019-03-28T11:10:30.646Z,56.96
2019-03-28T11:11:31.233Z,55.56
2019-03-28T11:12:30.227Z,56.55
2019-03-28T11:13:30.229Z,56.78
2019-03-28T11:14:30.220Z,55.22
2019-03-28T11:15:30.199Z,55.81
2019-03-28T11:16:30.192Z,56.63
2019-03-28T11:17:30.191Z,55.20
2019-03-28T11:18:30.193Z,54.54
2019-03-28T11:19:30.169Z,55.28
2019-03-28T11:20:30.170Z,56.90
2019-03-28T11:21:30.155Z,55.79
2019-03-28T11:22:30.148Z,55.20
2019-03-28T11:23:30.152Z,57.54
2019-03-28T11:24:30.133Z,56.68
2019-03-28T11:25:30.119Z,55.96
2019-03-28T11:26:30.240Z,56.75
2019-03-28T11:27:30.122Z,53.96
2019-03-28T11:28:30.162Z,57.04
2019-03-28T11:29:30.110Z,54.94
2019-03-28T11:30:30.106Z,54.33
2019-03-28T11:31:30.095Z,52.05
2019-03-28T11:32:30.100Z,52.58
2019-03-28T11:33:30.083Z,53.39
2019-03-28T11:34:30.076Z,53.72
2019-03-28T11:35:30.065Z,52.98
2019-03-28T11:36:30.058Z,52.17
2019-03-28T11:37:30.066Z,53.47
2019-03-28T11:38:30.055Z,53.57
2019-03-28T11:39:30.037Z,52.91
2019-03-28T11:40:30.021Z,54.44
2019-03-28T11:41:30.022Z,50.76
2019-03-28T11:42:30.003Z,52.30
2019-03-28T11:43:30.000Z,52.58
2019-03-28T11:44:29.997Z,55.38
2019-03-28T11:45:30.009Z,54.51
2019-03-28T11:46:30.016Z,53.02
2019-03-28T11:47:29.980Z,53.93
2019-03-28T11:48:29.977Z,51.70
2019-03-28T11:49:29.978Z,52.12
2019-03-28T11:50:29.953Z,51.39
2019-03-28T11:51:30.566Z,52.76
2019-03-28T11:52:29.966Z,52.73
2019-03-28T11:53:29.958Z,52.03
2019-03-28T11:54:29.962Z,52.23
2019-03-28T11:55:29.968Z,52.94
2019-03-28T11:56:29.952Z,52.25
2019-03-28T11:57:29.956Z,52.56
2019-03-28T11:58:29.940Z,52.20
2019-03-28T11:59:30.008Z,51.77
2019-03-28T12:00:29.929Z,54.28
2019-03-28T12:01:29.922Z,52.69
2019-03-28T12:02:29.916Z,51.87
2019-03-28T12:03:29.902Z,52.58
2019-03-28T12:04:29.902Z,54.54
2019-03-28T12:05:29.919Z,53.30
2019-03-28T12:06:29.887Z,52.81
2019-03-28T12:07:29.867Z,52.58
2019-03-28T12:08:29.863Z,52.18
2019-03-28T12:09:29.895Z,53.65
2019-03-28T12:10:29.858Z,54.57
2019-03-28T12:11:29.849Z,55.35
2019-03-28T12:12:29.838Z,55.46
2019-03-28T12:13:43.696Z,55.10
2019-03-28T12:14:30.863Z,54.28
2019-03-28T12:15:29.851Z,57.56
2019-03-28T12:16:29.838Z,55.51
2019-03-28T12:17:29.827Z,55.68
2019-03-28T12:18:29.828Z,54.97
2019-03-28T12:19:29.821Z,56.57
2019-03-28T12:20:29.819Z,57.18
2019-03-28T12:21:29.794Z,55.55
2019-03-28T12:22:29.784Z,57.92
2019-03-28T12:23:29.786Z,56.12
2019-03-28T12:24:29.789Z,56.60
2019-03-28T12:25:29.797Z,57.04
2019-03-28T12:26:29.763Z,56.60
2019-03-28T12:27:29.755Z,56.70
2019-03-28T12:28:29.769Z,55.76
2019-03-28T12:29:29.757Z,55.46
2019-03-28T12:30:29.729Z,55.35
2019-03-28T12:31:32.972Z,54.92
2019-03-28T12:32:29.715Z,54.72
2019-03-28T12:33:29.709Z,54.51
2019-03-28T12:34:29.721Z,54.59
2019-03-28T12:35:29.690Z,55.60
2019-03-28T12:36:30.704Z,52.84
2019-03-28T12:37:29.683Z,54.61
2019-03-28T12:38:29.673Z,55.35
2019-03-28T12:39:29.678Z,55.25
2019-03-28T12:40:29.655Z,55.22
2019-03-28T12:41:29.650Z,54.00
2019-03-28T12:42:29.641Z,54.51
2019-03-28T12:43:29.634Z,54.39
2019-03-28T12:44:29.638Z,52.86
2019-03-28T12:45:29.626Z,54.05
2019-03-28T12:46:29.632Z,54.84
2019-03-28T12:47:41.624Z,53.83
2019-03-28T12:48:31.603Z,52.48
2019-03-28T12:49:29.612Z,52.86
2019-03-28T12:50:29.589Z,52.28
2019-03-28T12:51:29.601Z,52.38
2019-03-28T12:52:30.027Z,52.99